Fort Huachuca, AZ (85613)

7:27 PM MST on February 11, 2016 (GMT -0700)
Garden Canyon-Ft Mountain View Golf, | | Change Station
CLOSE
Current Station
Personal Weather Station
Location: Sierra Vista, AZ
Elevation: 4764 ft
Nearby Weather Stations

Elev 4764 ft 31.54 °N, 110.31 °W | Updated 37 seconds ago

Clear
Clear
55.4 °F
Feels Like 55.4 °F
N
5.0
Wind Variable Wind from North
Gusts 8.0 mph

Today
High -- | Low -- °F
--% Chance of Precip.
Yesterday
High -- | Low -- °F
Precip. -- in
Pressure 30.18 in
Visibility 10.0 miles
Clouds Clear
Dew Point 17 °F
Humidity 22%
Rainfall 0.00 in
Snow Depth Not available.
7:07 AM 6:04 PM
Waxing Crescent, 16% visible
METAR KFHU 120158Z AUTO 24008KT 10SM CLR 15/M10 A3027 RMK AO2 SLP219 T01521105
Pressure 30.18 in
Visibility 10.0 miles
Clouds Clear
Dew Point 17 °F
Humidity 22%
Rainfall 0.00 in
Snow Depth Not available.
7:07 AM 6:04 PM
Waxing Crescent, 16% visible
METAR KFHU 120158Z AUTO 24008KT 10SM CLR 15/M10 A3027 RMK AO2 SLP219 T01521105

10-Day Weather Forecast

Almanac

Astronomy

Feb. 11, 2016 Rise Set
Actual Time
Civil Twilight
Nautical Twilight
Astronomical Twilight
Moon
Length of Visible Light
Length of Day
Tomorrow will be .
, % of the Moon is Illuminated

Today's Extremes

State Highs State Lows

Community

WunderPhotos

Upload Photos

1,892,226 photos uploaded!

WunderBlog® & News

Nearby

Air Quality

  Air Quality AQ Index Pollutant
Not available.

Snow Depth

Station Depth Elevation

Earthquake Activity

City Distance Mag. Time & Date
Minimum magnitude displayed is 2.5.

Coastal Water Temperatures

Place Temperature

Stations

Nearby Weather Stations

Station Location Temp. Windchill Dew Point Humidity Wind Precip. Elev Updated Type
                   

Watches & Warnings

There are currently no watches in effect.